Time,TemperatureF,DewpointF,PressureIn,WindDirection,WindDirectionDegrees,WindSpeedMPH,WindSpeedGustMPH,Humidity,HourlyPrecipIn,Conditions,Clouds,dailyrainin,SoftwareType,DateUTC
2013-01-21 00:02:00,16.0,8.0,30.30,SE,128,4.0,6.0,71,0.00,,,0.00,,2013-01-21 07:02:00,
2013-01-21 00:12:00,16.0,8.0,30.30,SE,128,4.0,6.0,71,0.00,,,0.00,,2013-01-21 07:12:00,
2013-01-21 00:22:00,17.0,9.0,30.30,SE,128,3.0,6.0,69,0.00,,,0.00,,2013-01-21 07:22:00,
2013-01-21 00:32:00,14.0,7.0,30.30,SE,132,5.0,7.0,73,0.00,,,0.00,,2013-01-21 07:32:00,
2013-01-21 00:53:00,13.0,7.0,30.30,SSE,156,5.0,8.0,77,0.00,,,0.00,,2013-01-21 07:53:00,
2013-01-21 01:02:00,15.0,8.0,30.29,SSE,152,5.0,7.0,72,0.00,,,0.00,,2013-01-21 08:02:00,
2013-01-21 01:12:00,15.0,8.0,30.29,SSE,152,5.0,7.0,72,0.00,,,0.00,,2013-01-21 08:12:00,
2013-01-21 01:22:00,16.0,9.0,30.29,SSW,194,5.0,7.0,73,0.00,,,0.00,,2013-01-21 08:22:00,
2013-01-21 01:32:00,16.0,8.0,30.29,SSE,158,5.0,8.0,69,0.00,,,0.00,,2013-01-21 08:32:00,
2013-01-21 01:53:00,18.0,10.0,30.29,South,190,5.0,9.0,69,0.00,,,0.00,,2013-01-21 08:53:00,
2013-01-21 02:02:00,17.0,8.0,30.28,South,181,5.0,9.0,68,0.00,,,0.00,,2013-01-21 09:02:00,
2013-01-21 02:11:00,17.0,8.0,30.28,South,181,5.0,9.0,68,0.00,,,0.00,,2013-01-21 09:11:00,
2013-01-21 02:22:00,19.0,9.0,30.29,SW,219,3.0,5.0,63,0.00,,,0.00,,2013-01-21 09:22:00,
2013-01-21 02:32:00,16.0,8.0,30.29,SSE,159,4.0,8.0,71,0.00,,,0.00,,2013-01-21 09:32:00,
2013-01-21 02:42:00,16.0,8.0,30.29,SSE,159,4.0,8.0,71,0.00,,,0.00,,2013-01-21 09:42:00,
2013-01-21 02:53:00,14.0,7.0,30.29,SE,146,4.0,8.0,72,0.00,,,0.00,,2013-01-21 09:53:00,
2013-01-21 03:01:00,13.0,6.0,30.29,SE,133,5.0,8.0,73,0.00,,,0.00,,2013-01-21 10:01:00,
2013-01-21 03:11:00,13.0,6.0,30.29,SE,133,5.0,8.0,73,0.00,,,0.00,,2013-01-21 10:11:00,
2013-01-21 03:22:00,12.0,6.0,30.30,SE,140,5.0,9.0,78,0.00,,,0.00,,2013-01-21 10:22:00,
2013-01-21 03:32:00,13.0,7.0,30.30,SE,142,6.0,8.0,77,0.00,,,0.00,,2013-01-21 10:32:00,
2013-01-21 03:42:00,13.0,7.0,30.30,SE,142,6.0,8.0,77,0.00,,,0.00,,2013-01-21 10:42:00,
2013-01-21 03:52:00,13.0,7.0,30.30,SE,144,6.0,8.0,75,0.00,,,0.00,,2013-01-21 10:52:00,
2013-01-21 04:02:00,13.0,7.0,30.29,SE,140,6.0,10.0,75,0.00,,,0.00,,2013-01-21 11:02:00,
2013-01-21 04:12:00,13.0,7.0,30.29,SE,140,6.0,10.0,75,0.00,,,0.00,,2013-01-21 11:12:00,
2013-01-21 04:22:00,15.0,8.0,30.29,SSE,159,5.0,9.0,73,0.00,,,0.00,,2013-01-21 11:22:00,
2013-01-21 04:32:00,15.0,7.0,30.28,SSE,147,4.0,8.0,71,0.00,,,0.00,,2013-01-21 11:32:00,
2013-01-21 05:02:00,17.0,8.0,30.28,SSE,148,5.0,8.0,67,0.00,,,0.00,,2013-01-21 12:02:00,
2013-01-21 05:22:00,14.0,7.0,30.28,SSE,153,4.0,8.0,72,0.00,,,0.00,,2013-01-21 12:22:00,
2013-01-21 05:32:00,10.0,4.0,30.28,SSE,158,7.0,10.0,77,0.00,,,0.00,,2013-01-21 12:32:00,
2013-01-21 05:42:00,10.0,4.0,30.28,SSE,158,7.0,10.0,77,0.00,,,0.00,,2013-01-21 12:42:00,
2013-01-21 05:53:00,14.0,7.0,30.28,SSE,167,6.0,11.0,74,0.00,,,0.00,,2013-01-21 12:53:00,
2013-01-21 06:02:00,14.0,7.0,30.28,SE,139,6.0,9.0,73,0.00,,,0.00,,2013-01-21 13:02:00,
2013-01-21 06:22:00,14.0,6.0,30.28,SE,127,6.0,12.0,71,0.00,,,0.00,,2013-01-21 13:22:00,
2013-01-21 06:32:00,12.0,6.0,30.28,SE,132,5.0,11.0,76,0.00,,,0.00,,2013-01-21 13:32:00,
2013-01-21 06:42:00,12.0,6.0,30.28,SE,132,5.0,11.0,76,0.00,,,0.00,,2013-01-21 13:42:00,
2013-01-21 06:53:00,13.0,6.0,30.29,ESE,109,5.0,8.0,73,0.00,,,0.00,,2013-01-21 13:53:00,
2013-01-21 07:02:00,12.0,5.0,30.29,ESE,111,6.0,9.0,74,0.00,,,0.00,,2013-01-21 14:02:00,
2013-01-21 07:12:00,12.0,5.0,30.29,ESE,111,6.0,9.0,74,0.00,,,0.00,,2013-01-21 14:12:00,
2013-01-21 07:22:00,12.0,6.0,30.29,SE,138,5.0,10.0,77,0.00,,,0.00,,2013-01-21 14:22:00,
2013-01-21 07:32:00,13.0,7.0,30.28,SE,140,6.0,11.0,77,0.00,,,0.00,,2013-01-21 14:32:00,
2013-01-21 07:42:00,13.0,7.0,30.28,SE,140,6.0,11.0,77,0.00,,,0.00,,2013-01-21 14:42:00,
2013-01-21 07:53:00,12.0,6.0,30.28,SE,146,5.0,9.0,78,0.00,,,0.00,,2013-01-21 14:53:00,
2013-01-21 08:02:00,11.0,5.0,30.29,ESE,121,5.0,9.0,76,0.00,,,0.00,,2013-01-21 15:02:00,
2013-01-21 08:12:00,11.0,5.0,30.29,ESE,121,5.0,9.0,76,0.00,,,0.00,,2013-01-21 15:12:00,
2013-01-21 08:22:00,11.0,5.0,30.29,SE,132,5.0,10.0,77,0.00,,,0.00,,2013-01-21 15:22:00,
2013-01-21 08:32:00,12.0,6.0,30.28,SSE,148,3.0,12.0,78,0.00,,,0.00,,2013-01-21 15:32:00,
2013-01-21 08:42:00,12.0,6.0,30.28,SSE,148,3.0,12.0,78,0.00,,,0.00,,2013-01-21 15:42:00,
2013-01-21 08:53:00,13.0,7.0,30.28,ESE,113,4.0,12.0,77,0.00,,,0.00,,2013-01-21 15:53:00,
2013-01-21 09:02:00,12.0,6.0,30.29,SSE,155,8.0,14.0,78,0.00,,,0.00,,2013-01-21 16:02:00,
2013-01-21 09:12:00,12.0,6.0,30.29,SSE,155,8.0,14.0,78,0.00,,,0.00,,2013-01-21 16:12:00,
2013-01-21 09:23:00,14.0,8.0,30.29,SSE,150,4.0,10.0,75,0.00,,,0.00,,2013-01-21 16:23:00,
2013-01-21 09:32:00,15.0,8.0,30.29,SE,130,8.0,13.0,72,0.00,,,0.00,,2013-01-21 16:32:00,
2013-01-21 09:43:00,15.0,8.0,30.29,SE,130,8.0,13.0,72,0.00,,,0.00,,2013-01-21 16:43:00,
2013-01-21 09:53:00,16.0,8.0,30.30,SE,138,8.0,12.0,69,0.00,,,0.00,,2013-01-21 16:53:00,
2013-01-21 10:02:00,17.0,9.0,30.30,SE,140,7.0,11.0,69,0.00,,,0.00,,2013-01-21 17:02:00,
2013-01-21 10:22:00,18.0,9.0,30.30,SE,146,6.0,11.0,67,0.00,,,0.00,,2013-01-21 17:22:00,
2013-01-21 10:32:00,18.0,9.0,30.30,SE,138,6.0,12.0,67,0.00,,,0.00,,2013-01-21 17:32:00,
2013-01-21 10:53:00,18.0,10.0,30.31,SE,124,6.0,13.0,69,0.00,,,0.00,,2013-01-21 17:53:00,
2013-01-21 11:02:00,18.0,10.0,30.31,SE,138,4.0,8.0,69,0.00,,,0.00,,2013-01-21 18:02:00,
2013-01-21 11:11:00,18.0,10.0,30.31,SE,138,4.0,8.0,69,0.00,,,0.00,,2013-01-21 18:11:00,
2013-01-21 11:22:00,19.0,10.0,30.31,South,178,5.0,10.0,68,0.00,,,0.00,,2013-01-21 18:22:00,
2013-01-21 11:33:00,18.0,10.0,30.30,SSE,159,5.0,11.0,70,0.00,,,0.00,,2013-01-21 18:33:00,
2013-01-21 11:42:00,18.0,10.0,30.30,SSE,159,5.0,11.0,70,0.00,,,0.00,,2013-01-21 18:42:00,
2013-01-21 11:52:00,19.0,10.0,30.30,SE,130,8.0,11.0,68,0.00,,,0.00,,2013-01-21 18:52:00,
2013-01-21 12:02:00,19.0,10.0,30.29,SE,126,6.0,11.0,66,0.00,,,0.00,,2013-01-21 19:02:00,
2013-01-21 12:12:00,20.0,11.0,30.29,South,184,7.0,12.0,66,0.00,,,0.00,,2013-01-21 19:12:00,
2013-01-21 12:22:00,20.0,11.0,30.29,South,184,7.0,12.0,66,0.00,,,0.00,,2013-01-21 19:22:00,
2013-01-21 12:32:00,22.0,11.0,30.29,SE,130,5.0,16.0,62,0.00,,,0.00,,2013-01-21 19:32:00,
2013-01-21 12:42:00,22.0,11.0,30.29,SE,130,5.0,16.0,62,0.00,,,0.00,,2013-01-21 19:42:00,
2013-01-21 12:53:00,23.0,10.0,30.29,SSW,192,6.0,14.0,58,0.00,,,0.00,,2013-01-21 19:53:00,
2013-01-21 13:02:00,22.0,10.0,30.28,SSE,152,4.0,10.0,60,0.00,,,0.00,,2013-01-21 20:02:00,
2013-01-21 13:12:00,22.0,10.0,30.28,SSE,152,4.0,10.0,60,0.00,,,0.00,,2013-01-21 20:12:00,
2013-01-21 13:22:00,23.0,12.0,30.28,SSE,157,3.0,7.0,61,0.00,,,0.00,,2013-01-21 20:22:00,
2013-01-21 13:32:00,23.0,12.0,30.27,ESE,123,6.0,9.0,61,0.00,,,0.00,,2013-01-21 20:32:00,
2013-01-21 13:42:00,23.0,12.0,30.27,ESE,123,6.0,9.0,61,0.00,,,0.00,,2013-01-21 20:42:00,
2013-01-21 13:53:00,24.0,10.0,30.27,South,173,3.0,7.0,55,0.00,,,0.00,,2013-01-21 20:53:00,
2013-01-21 14:02:00,25.0,11.0,30.26,South,182,2.0,7.0,54,0.00,,,0.00,,2013-01-21 21:02:00,
2013-01-21 14:12:00,25.0,11.0,30.26,South,182,2.0,7.0,54,0.00,,,0.00,,2013-01-21 21:12:00,
2013-01-21 14:22:00,25.0,11.0,30.26,SE,140,6.0,11.0,55,0.00,,,0.00,,2013-01-21 21:22:00,
2013-01-21 14:32:00,24.0,11.0,30.26,SE,142,3.0,8.0,56,0.00,,,0.00,,2013-01-21 21:32:00,
2013-01-21 14:42:00,24.0,11.0,30.26,SE,142,3.0,8.0,56,0.00,,,0.00,,2013-01-21 21:42:00,
2013-01-21 14:53:00,24.0,11.0,30.25,SSE,165,4.0,16.0,56,0.00,,,0.00,,2013-01-21 21:53:00,
2013-01-21 15:02:00,24.0,11.0,30.24,SSW,199,5.0,12.0,57,0.00,,,0.00,,2013-01-21 22:02:00,
2013-01-21 15:11:00,24.0,11.0,30.24,SSW,199,5.0,12.0,57,0.00,,,0.00,,2013-01-21 22:11:00,
2013-01-21 15:22:00,23.0,10.0,30.24,ESE,121,4.0,14.0,57,0.00,,,0.00,,2013-01-21 22:22:00,
2013-01-21 15:32:00,22.0,10.0,30.24,South,182,6.0,10.0,58,0.00,,,0.00,,2013-01-21 22:32:00,
2013-01-21 15:42:00,22.0,10.0,30.24,South,182,6.0,10.0,58,0.00,,,0.00,,2013-01-21 22:42:00,
2013-01-21 15:52:00,22.0,10.0,30.24,ESE,113,6.0,9.0,59,0.00,,,0.00,,2013-01-21 22:52:00,
2013-01-21 16:02:00,21.0,9.0,30.24,ESE,119,5.0,13.0,59,0.00,,,0.00,,2013-01-21 23:02:00,
2013-01-21 16:12:00,21.0,9.0,30.24,ESE,119,5.0,13.0,59,0.00,,,0.00,,2013-01-21 23:12:00,
2013-01-21 16:22:00,20.0,9.0,30.24,South,177,5.0,11.0,61,0.00,,,0.00,,2013-01-21 23:22:00,
2013-01-21 16:32:00,20.0,9.0,30.24,SE,142,4.0,10.0,62,0.00,,,0.00,,2013-01-21 23:32:00,
2013-01-21 16:42:00,20.0,9.0,30.24,SE,142,4.0,10.0,62,0.00,,,0.00,,2013-01-21 23:42:00,
2013-01-21 16:53:00,19.0,8.0,30.22,SE,128,6.0,9.0,62,0.00,,,0.00,,2013-01-21 23:53:00,
2013-01-21 17:02:00,19.0,9.0,30.23,ESE,111,5.0,9.0,64,0.00,,,0.00,,2013-01-22 00:02:00,
2013-01-21 17:11:00,19.0,9.0,30.23,ESE,111,5.0,9.0,64,0.00,,,0.00,,2013-01-22 00:11:00,
2013-01-21 17:22:00,18.0,9.0,30.22,SE,124,3.0,8.0,66,0.00,,,0.00,,2013-01-22 00:22:00,
2013-01-21 17:32:00,17.0,7.0,30.22,SE,136,4.0,9.0,65,0.00,,,0.00,,2013-01-22 00:32:00,
2013-01-21 17:42:00,17.0,7.0,30.22,SE,136,4.0,9.0,65,0.00,,,0.00,,2013-01-22 00:42:00,
2013-01-21 17:53:00,18.0,9.0,30.22,ESE,114,7.0,16.0,66,0.00,,,0.00,,2013-01-22 00:53:00,
2013-01-21 18:02:00,16.0,7.0,30.22,SE,140,6.0,8.0,68,0.00,,,0.00,,2013-01-22 01:02:00,
2013-01-21 18:12:00,16.0,7.0,30.22,SE,140,6.0,8.0,68,0.00,,,0.00,,2013-01-22 01:12:00,
2013-01-21 18:22:00,16.0,8.0,30.21,ESE,103,6.0,12.0,70,0.00,,,0.00,,2013-01-22 01:22:00,
2013-01-21 18:32:00,16.0,8.0,30.22,South,188,4.0,9.0,69,0.00,,,0.00,,2013-01-22 01:32:00,
2013-01-21 18:42:00,16.0,8.0,30.22,South,188,4.0,9.0,69,0.00,,,0.00,,2013-01-22 01:42:00,
2013-01-21 18:52:00,15.0,7.0,30.22,SSE,153,3.0,8.0,70,0.00,,,0.00,,2013-01-22 01:52:00,
2013-01-21 19:02:00,15.0,8.0,30.22,South,178,4.0,9.0,72,0.00,,,0.00,,2013-01-22 02:02:00,
2013-01-21 19:12:00,15.0,8.0,30.22,South,178,4.0,9.0,72,0.00,,,0.00,,2013-01-22 02:12:00,
2013-01-21 19:22:00,14.0,6.0,30.22,SE,128,3.0,9.0,71,0.00,,,0.00,,2013-01-22 02:22:00,
2013-01-21 19:32:00,14.0,6.0,30.22,SE,146,5.0,9.0,71,0.00,,,0.00,,2013-01-22 02:32:00,
2013-01-21 19:42:00,14.0,6.0,30.22,SE,146,5.0,9.0,71,0.00,,,0.00,,2013-01-22 02:42:00,
2013-01-21 19:53:00,14.0,6.0,30.22,ESE,115,4.0,12.0,71,0.00,,,0.00,,2013-01-22 02:53:00,
2013-01-21 20:02:00,14.0,6.0,30.22,SE,140,5.0,9.0,71,0.00,,,0.00,,2013-01-22 03:02:00,
2013-01-21 20:12:00,14.0,6.0,30.22,SE,140,5.0,9.0,71,0.00,,,0.00,,2013-01-22 03:12:00,
2013-01-21 20:22:00,14.0,7.0,30.22,SE,134,4.0,11.0,73,0.00,,,0.00,,2013-01-22 03:22:00,
2013-01-21 20:32:00,13.0,6.0,30.22,South,190,7.0,12.0,73,0.00,,,0.00,,2013-01-22 03:32:00,
2013-01-21 20:42:00,13.0,6.0,30.22,South,190,7.0,12.0,73,0.00,,,0.00,,2013-01-22 03:42:00,
2013-01-21 20:52:00,13.0,7.0,30.22,SSE,153,5.0,11.0,75,0.00,,,0.00,,2013-01-22 03:52:00,
2013-01-21 21:02:00,12.0,5.0,30.22,SE,134,7.0,13.0,74,0.00,,,0.00,,2013-01-22 04:02:00,
2013-01-21 21:11:00,12.0,5.0,30.22,SE,134,7.0,13.0,74,0.00,,,0.00,,2013-01-22 04:11:00,
2013-01-21 21:22:00,12.0,6.0,30.22,ESE,121,7.0,14.0,75,0.00,,,0.00,,2013-01-22 04:22:00,
2013-01-21 21:32:00,12.0,6.0,30.22,SSE,157,7.0,14.0,76,0.00,,,0.00,,2013-01-22 04:32:00,
2013-01-21 21:42:00,12.0,6.0,30.22,SSE,157,7.0,14.0,76,0.00,,,0.00,,2013-01-22 04:42:00,
2013-01-21 21:52:00,11.0,5.0,30.22,SE,130,9.0,16.0,77,0.00,,,0.00,,2013-01-22 04:52:00,
2013-01-21 22:02:00,11.0,6.0,30.22,SE,137,8.0,18.0,78,0.00,,,0.00,,2013-01-22 05:02:00,
2013-01-21 22:12:00,11.0,6.0,30.22,SE,137,8.0,18.0,78,0.00,,,0.00,,2013-01-22 05:12:00,
2013-01-21 22:22:00,11.0,6.0,30.22,SE,126,9.0,15.0,78,0.00,,,0.00,,2013-01-22 05:22:00,
2013-01-21 22:32:00,12.0,6.0,30.22,SE,138,6.0,11.0,75,0.00,,,0.00,,2013-01-22 05:32:00,
2013-01-21 22:42:00,12.0,6.0,30.22,SE,138,6.0,11.0,75,0.00,,,0.00,,2013-01-22 05:42:00,
2013-01-21 22:52:00,12.0,5.0,30.23,SSE,163,4.0,12.0,73,0.00,,,0.00,,2013-01-22 05:52:00,
2013-01-21 23:02:00,14.0,6.0,30.23,South,183,9.0,18.0,70,0.00,,,0.00,,2013-01-22 06:02:00,
2013-01-21 23:11:00,14.0,6.0,30.23,South,183,9.0,18.0,70,0.00,,,0.00,,2013-01-22 06:11:00,
2013-01-21 23:22:00,18.0,7.0,30.23,SSW,202,12.0,20.0,61,0.00,,,0.00,,2013-01-22 06:22:00,
2013-01-21 23:32:00,12.0,5.0,30.24,South,186,11.0,19.0,73,0.00,,,0.00,,2013-01-22 06:32:00,
2013-01-21 23:42:00,12.0,5.0,30.24,South,186,11.0,19.0,73,0.00,,,0.00,,2013-01-22 06:42:00,
2013-01-21 23:52:00,16.0,7.0,30.23,SSW,213,12.0,20.0,66,0.00,,,0.00,,2013-01-22 06:52:00,